createdAt,value
2019-01-18T00:02:05.609Z,-1.30
2019-01-18T00:04:35.510Z,-1.30
2019-01-18T00:07:09.852Z,-1.30
2019-01-18T00:09:40.923Z,-1.40
2019-01-18T00:12:10.283Z,-1.50
2019-01-18T00:14:41.527Z,-1.40
2019-01-18T00:17:11.897Z,-1.50
2019-01-18T00:19:41.468Z,-1.50
2019-01-18T00:22:12.479Z,-1.60
2019-01-18T00:24:41.890Z,-1.60
2019-01-18T00:27:12.141Z,-1.70
2019-01-18T00:29:42.435Z,-1.60
2019-01-18T00:32:12.564Z,-1.60
2019-01-18T00:34:41.705Z,-1.60
2019-01-18T00:37:10.876Z,-1.70
2019-01-18T00:39:40.026Z,-1.70
2019-01-18T00:42:09.878Z,-1.70
2019-01-18T00:44:38.827Z,-1.70
2019-01-18T00:47:07.740Z,-1.70
2019-01-18T00:49:36.881Z,-1.70
2019-01-18T00:52:08.931Z,-1.70
2019-01-18T00:54:40.089Z,-1.80
2019-01-18T00:57:10.096Z,-1.80
2019-01-18T00:59:50.019Z,-1.80
2019-01-18T01:02:19.249Z,-1.80
2019-01-18T01:04:50.240Z,-1.80
2019-01-18T01:07:19.700Z,-1.80
2019-01-18T01:10:03.425Z,-1.80
2019-01-18T01:12:34.793Z,-1.80
2019-01-18T01:15:16.833Z,-1.80
2019-01-18T01:17:57.162Z,-1.80
2019-01-18T01:20:26.550Z,-1.80
2019-01-18T01:23:00.272Z,-1.80
2019-01-18T01:25:40.123Z,-1.80
2019-01-18T01:28:10.027Z,-1.80
2019-01-18T01:30:40.814Z,-1.80
2019-01-18T01:33:10.637Z,-1.80
2019-01-18T01:35:40.638Z,-1.70
2019-01-18T01:38:10.969Z,-1.70
2019-01-18T01:40:45.213Z,-1.70
2019-01-18T01:43:15.523Z,-1.70
2019-01-18T01:45:44.815Z,-1.70
2019-01-18T01:48:13.729Z,-1.70
2019-01-18T01:50:44.733Z,-1.70
2019-01-18T01:53:23.916Z,-1.60
2019-01-18T01:59:36.010Z,-1.60
2019-01-18T02:02:12.662Z,-1.50
2019-01-18T02:04:42.854Z,-1.50
2019-01-18T02:08:18.363Z,-1.50
2019-01-18T02:10:50.255Z,-1.40
2019-01-18T02:13:21.272Z,-1.40
2019-01-18T02:15:52.698Z,-1.40
2019-01-18T02:18:23.255Z,-1.30
2019-01-18T02:20:57.371Z,-1.30
2019-01-18T02:23:27.589Z,-1.30
2019-01-18T02:25:59.564Z,-1.20
2019-01-18T02:28:30.849Z,-1.20
2019-01-18T02:31:01.189Z,-1.20
2019-01-18T02:33:33.286Z,-1.10
2019-01-18T02:36:15.770Z,-1.10
2019-01-18T02:38:46.480Z,-1.00
2019-01-18T02:41:16.098Z,-1.00
2019-01-18T02:43:52.651Z,-0.90
2019-01-18T02:46:31.416Z,-0.90
2019-01-18T02:49:00.843Z,-0.80
2019-01-18T02:51:30.922Z,-0.80
2019-01-18T02:54:01.309Z,-0.70
2019-01-18T02:56:31.495Z,-0.70
2019-01-18T02:59:03.125Z,-0.70
2019-01-18T03:01:33.341Z,-0.70
2019-01-18T03:04:06.032Z,-0.60
2019-01-18T03:06:41.475Z,-0.60
2019-01-18T03:09:12.221Z,-0.60
2019-01-18T03:11:42.598Z,-0.60
2019-01-18T03:14:14.196Z,-0.60
2019-01-18T03:16:50.607Z,-0.60
2019-01-18T03:19:20.126Z,-0.50
2019-01-18T03:21:53.558Z,-0.50
2019-01-18T03:24:25.693Z,-0.50
2019-01-18T03:27:00.014Z,-0.50
2019-01-18T03:29:29.651Z,-0.40
2019-01-18T03:31:59.037Z,-0.40
2019-01-18T03:34:30.311Z,-0.40
2019-01-18T03:37:21.350Z,-0.30
2019-01-18T03:39:52.308Z,-0.30
2019-01-18T03:42:24.293Z,-0.30
2019-01-18T03:44:53.354Z,-0.30
2019-01-18T03:47:24.017Z,-0.30
2019-01-18T03:49:58.358Z,-0.30
2019-01-18T03:52:32.363Z,-0.30
2019-01-18T03:55:04.553Z,-0.20
2019-01-18T03:57:38.380Z,-0.20
2019-01-18T04:00:26.286Z,-0.20
2019-01-18T04:02:58.841Z,-0.20
2019-01-18T04:06:08.283Z,-0.10
2019-01-18T04:08:40.551Z,-0.10
2019-01-18T04:11:13.745Z,0.00
2019-01-18T04:13:47.199Z,0.10
2019-01-18T04:16:32.956Z,0.10
2019-01-18T04:19:02.988Z,0.10
2019-01-18T04:21:35.758Z,0.20
2019-01-18T04:24:08.143Z,0.20
2019-01-18T04:26:41.101Z,0.20
2019-01-18T04:29:13.482Z,0.20
2019-01-18T04:31:46.687Z,0.10
2019-01-18T04:34:19.766Z,0.10
2019-01-18T04:36:54.541Z,0.10
2019-01-18T04:39:24.806Z,0.00
2019-01-18T04:42:02.299Z,0.00
2019-01-18T04:44:35.095Z,0.00
2019-01-18T04:47:18.789Z,0.10
2019-01-18T04:49:52.116Z,0.10
2019-01-18T04:52:28.112Z,0.10
2019-01-18T04:54:57.976Z,0.00
2019-01-18T04:57:26.843Z,0.00
2019-01-18T04:59:56.117Z,0.00
2019-01-18T05:02:27.191Z,0.00
2019-01-18T05:04:59.214Z,0.00
2019-01-18T05:07:32.279Z,0.00
2019-01-18T05:10:17.342Z,0.00
2019-01-18T05:12:46.386Z,0.00
2019-01-18T05:15:24.899Z,0.00
2019-01-18T05:17:54.963Z,0.10
2019-01-18T05:20:25.761Z,0.10
2019-01-18T05:22:55.080Z,0.10
2019-01-18T05:25:57.425Z,0.10
2019-01-18T05:28:27.515Z,0.10
2019-01-18T05:30:57.748Z,0.10
2019-01-18T05:33:28.829Z,0.10
2019-01-18T05:36:05.007Z,0.10
2019-01-18T05:38:37.785Z,0.10
2019-01-18T05:41:09.262Z,0.10
2019-01-18T05:43:41.786Z,0.10
2019-01-18T05:49:55.219Z,0.10
2019-01-18T05:52:28.182Z,0.00
2019-01-18T05:54:59.783Z,0.00
2019-01-18T05:57:30.983Z,0.00
2019-01-18T06:00:00.631Z,0.00
2019-01-18T06:02:31.180Z,0.00
2019-01-18T06:05:03.525Z,0.00
2019-01-18T06:07:33.863Z,0.10
2019-01-18T06:10:09.670Z,0.10
2019-01-18T06:12:39.092Z,0.10
2019-01-18T06:15:12.596Z,0.10
2019-01-18T06:17:44.459Z,0.10
2019-01-18T06:20:14.156Z,0.10
2019-01-18T06:22:45.682Z,0.00
2019-01-18T06:25:18.778Z,0.00
2019-01-18T06:27:52.463Z,0.10
2019-01-18T06:30:25.255Z,0.10
2019-01-18T06:33:11.310Z,0.10
2019-01-18T06:35:50.163Z,0.10
2019-01-18T06:38:22.580Z,0.10
2019-01-18T06:41:05.155Z,0.10
2019-01-18T06:46:56.046Z,0.20
2019-01-18T06:49:27.379Z,0.30
2019-01-18T06:52:01.138Z,0.30
2019-01-18T06:54:34.239Z,0.40
2019-01-18T06:57:17.211Z,0.40
2019-01-18T06:59:46.515Z,0.30
2019-01-18T07:02:16.326Z,0.30
2019-01-18T07:04:47.829Z,0.40
2019-01-18T07:07:27.925Z,0.30
2019-01-18T07:09:58.457Z,0.40
2019-01-18T07:12:53.421Z,0.40
2019-01-18T07:15:44.963Z,0.40
2019-01-18T07:22:25.252Z,0.40
2019-01-18T07:24:58.095Z,0.40
2019-01-18T07:27:29.578Z,0.40
2019-01-18T07:30:00.577Z,0.40
2019-01-18T07:32:36.347Z,0.40
2019-01-18T07:35:12.147Z,0.40
2019-01-18T07:37:46.459Z,0.40
2019-01-18T07:40:21.239Z,0.40
2019-01-18T07:43:01.074Z,0.40
2019-01-18T07:45:38.580Z,0.40
2019-01-18T07:48:22.835Z,0.40
2019-01-18T07:51:13.875Z,0.50
2019-01-18T07:53:45.873Z,0.50
2019-01-18T07:56:37.309Z,0.50
2019-01-18T07:59:08.838Z,0.50
2019-01-18T08:01:38.246Z,0.50
2019-01-18T08:04:07.485Z,0.50
2019-01-18T08:06:45.154Z,0.50
2019-01-18T08:09:14.482Z,0.60
2019-01-18T08:11:44.926Z,0.60
2019-01-18T08:14:35.096Z,0.60
2019-01-18T08:17:49.212Z,0.60
2019-01-18T08:20:22.678Z,0.60
2019-01-18T08:22:55.623Z,0.60
2019-01-18T08:25:25.606Z,0.60
2019-01-18T08:27:59.478Z,0.60
2019-01-18T08:31:28.893Z,0.60
2019-01-18T15:09:18.839Z,2.00
2019-01-18T15:11:49.178Z,2.00
2019-01-18T15:14:20.726Z,2.00
2019-01-18T15:16:50.141Z,2.00
2019-01-18T15:19:19.200Z,2.00
2019-01-18T15:21:53.365Z,2.00
2019-01-18T15:24:26.156Z,1.90
2019-01-18T15:27:02.321Z,1.90
2019-01-18T15:29:32.097Z,1.80
2019-01-18T15:32:04.278Z,1.90
2019-01-18T15:37:28.515Z,1.80
2019-01-18T15:39:57.971Z,1.80
2019-01-18T15:42:30.265Z,1.70
2019-01-18T15:45:19.563Z,1.70
2019-01-18T15:47:49.445Z,1.70
2019-01-18T15:50:23.140Z,1.70
2019-01-18T15:52:55.925Z,1.70
2019-01-18T15:55:36.274Z,1.70
2019-01-18T15:58:13.642Z,1.70
2019-01-18T16:00:46.844Z,1.60
2019-01-18T16:03:17.136Z,1.50
2019-01-18T16:05:48.225Z,1.50
2019-01-18T16:08:18.023Z,1.50
2019-01-18T16:10:50.166Z,1.50
2019-01-18T16:13:21.438Z,1.50
2019-01-18T16:16:19.976Z,1.40
2019-01-18T16:18:49.761Z,1.40
2019-01-18T16:21:21.066Z,1.40
2019-01-18T16:23:52.158Z,1.40
2019-01-18T16:26:24.431Z,1.40
2019-01-18T16:28:58.614Z,1.40
2019-01-18T16:31:28.326Z,1.40
2019-01-18T16:33:57.273Z,1.40
2019-01-18T16:36:28.883Z,1.30
2019-01-18T16:39:02.590Z,1.30
2019-01-18T16:41:33.427Z,1.30
2019-01-18T16:44:03.221Z,1.30
2019-01-18T16:46:42.376Z,1.30
2019-01-18T16:49:13.365Z,1.30
2019-01-18T16:51:42.571Z,1.30
2019-01-18T16:54:11.931Z,1.30
2019-01-18T16:56:46.811Z,1.20
2019-01-18T16:59:17.372Z,1.20
2019-01-18T17:02:06.872Z,1.20
2019-01-18T17:04:37.070Z,1.20
2019-01-18T17:07:19.671Z,1.20
2019-01-18T17:10:10.848Z,1.20
2019-01-18T17:12:58.857Z,1.20
2019-01-18T17:15:51.468Z,1.20
2019-01-18T17:18:26.061Z,1.20
2019-01-18T17:21:32.667Z,1.20
2019-01-18T17:24:49.459Z,1.20
2019-01-18T17:28:24.755Z,1.20
2019-01-18T17:32:05.668Z,1.20
2019-01-18T17:41:44.916Z,1.10
2019-01-18T17:45:11.370Z,1.10
2019-01-18T17:48:06.697Z,1.10
2019-01-18T17:51:10.826Z,1.10
2019-01-18T17:53:57.838Z,1.20
2019-01-18T17:57:06.859Z,1.10
2019-01-18T18:00:53.184Z,1.20
2019-01-18T18:07:29.274Z,1.20
2019-01-18T18:10:28.736Z,1.10
2019-01-18T18:13:58.032Z,1.20
2019-01-18T18:17:12.333Z,1.10
2019-01-18T18:20:29.795Z,1.20
2019-01-18T18:24:07.499Z,1.10
2019-01-18T18:27:32.120Z,1.10
2019-01-18T18:30:32.605Z,1.10
2019-01-18T18:33:39.946Z,1.20
2019-01-18T18:36:23.385Z,1.10
2019-01-18T18:39:41.041Z,1.20
2019-01-18T18:43:03.089Z,1.20
2019-01-18T18:46:34.861Z,1.20
2019-01-18T18:50:08.092Z,1.40
2019-01-18T18:53:13.386Z,1.50
2019-01-18T18:56:33.387Z,1.50
2019-01-18T18:59:37.214Z,1.60
2019-01-18T19:02:46.222Z,1.70
2019-01-18T19:05:57.403Z,1.80
2019-01-18T19:08:54.892Z,1.90
2019-01-18T19:11:59.100Z,2.00
2019-01-18T19:15:10.595Z,2.10
2019-01-18T19:18:37.722Z,2.10
2019-01-18T19:21:50.562Z,2.10
2019-01-18T19:25:24.798Z,2.10
2019-01-18T19:28:29.394Z,2.20
2019-01-18T19:31:34.935Z,2.20
2019-01-18T19:34:45.704Z,2.30
2019-01-18T19:40:14.883Z,2.40
2019-01-18T19:43:36.135Z,2.40
2019-01-18T19:46:58.584Z,2.50
2019-01-18T20:04:43.076Z,2.80
2019-01-18T20:07:46.261Z,2.80
2019-01-18T20:11:00.146Z,2.80
2019-01-18T20:16:52.265Z,2.80
2019-01-18T20:19:42.044Z,2.80
2019-01-18T20:23:04.225Z,2.80
2019-01-18T20:26:35.066Z,2.70
2019-01-18T20:29:45.644Z,2.70
2019-01-18T20:32:56.083Z,2.70
2019-01-18T20:36:12.327Z,2.60
2019-01-18T20:47:29.477Z,2.50
2019-01-18T20:50:44.635Z,2.50
2019-01-18T20:54:01.494Z,2.50
2019-01-18T20:57:00.316Z,2.40
2019-01-18T21:00:36.528Z,2.30
2019-01-18T21:03:37.101Z,2.20
2019-01-18T21:06:33.629Z,2.20
2019-01-18T21:09:49.346Z,2.10
2019-01-18T21:13:04.667Z,2.10
2019-01-18T21:16:10.730Z,2.00
2019-01-18T21:19:12.941Z,2.00
2019-01-18T21:22:56.111Z,2.00
2019-01-18T21:26:01.875Z,1.90
2019-01-18T21:29:40.593Z,1.90
2019-01-18T21:49:11.583Z,1.90
2019-01-18T23:13:45.553Z,1.70
2019-01-18T23:24:56.784Z,1.90
2019-01-18T23:50:52.517Z,1.50
